Time;durP1;ratioP1;P1;durP2;ratioP2;P2;SDS_P1;SDS_P2;PMS_P1;PMS_P2;Temp;Humidity;BMP_temperature;BMP_pressure;BME280_temperature;BME280_humidity;BME280_pressure;Samples;Min_cycle;Max_cycle;Signal;HPM_P1;HPM_P2
2022/04/26 03:37:17;;;;;;;12.88;4.47;;;6.00;99.90;;;;;;5089558;28;20040;-69
2022/04/26 03:39:44;;;;;;;15.93;5.15;;;6.00;99.90;;;;;;5091747;28;20494;-69
2022/04/26 03:42:09;;;;;;;8.32;3.95;;;6.00;99.90;;;;;;5090216;28;20036;-69
2022/04/26 03:44:35;;;;;;;7.85;4.43;;;6.00;99.90;;;;;;5091186;28;20041;-69
2022/04/26 03:47:00;;;;;;;9.82;4.10;;;6.00;99.90;;;;;;5097527;28;20479;-69
2022/04/26 03:49:27;;;;;;;15.65;5.05;;;6.00;99.90;;;;;;5103651;28;20039;-69
2022/04/26 03:51:53;;;;;;;7.13;4.03;;;6.00;99.90;;;;;;5105454;28;20534;-69
2022/04/26 03:54:22;;;;;;;8.68;3.78;;;6.00;99.90;;;;;;5097600;28;20138;-69
2022/04/26 03:56:48;;;;;;;13.40;3.70;;;7.30;99.90;;;;;;5112018;28;20104;-69
2022/04/26 03:59:14;;;;;;;10.98;3.72;;;6.00;99.90;;;;;;5110622;28;20040;-69
2022/04/26 04:01:40;;;;;;;9.15;3.67;;;5.90;99.90;;;;;;5111837;28;20043;-69
2022/04/26 04:04:06;;;;;;;12.18;4.07;;;5.90;99.90;;;;;;5111275;28;20055;-69
2022/04/26 04:06:32;;;;;;;10.13;4.03;;;5.90;99.90;;;;;;5109608;28;20180;-69
2022/04/26 04:08:58;;;;;;;7.22;4.10;;;5.90;99.90;;;;;;5110210;28;20043;-69
2022/04/26 04:11:23;;;;;;;10.73;4.20;;;5.90;99.90;;;;;;5110203;28;20047;-69
2022/04/26 04:13:49;;;;;;;12.10;4.38;;;5.90;99.90;;;;;;5110871;28;20031;-69
2022/04/26 04:16:15;;;;;;;9.85;4.20;;;5.80;99.90;;;;;;5100895;28;20146;-69
2022/04/26 04:21:25;;;;;;;9.57;4.05;;;5.80;99.90;;;;;;5109106;28;20040;-69
2022/04/26 04:23:51;;;;;;;9.38;4.75;;;5.90;99.90;;;;;;5101683;28;20055;-69
2022/04/26 04:26:19;;;;;;;10.20;4.13;;;5.90;99.90;;;;;;5089089;28;20044;-69
2022/04/26 04:28:45;;;;;;;7.22;4.40;;;6.00;99.90;;;;;;5092161;28;20055;-69
2022/04/26 04:31:10;;;;;;;10.52;4.47;;;6.00;99.90;;;;;;5096109;28;20040;-69
2022/04/26 04:33:37;;;;;;;10.75;4.85;;;6.00;99.90;;;;;;5104255;28;20047;-69
2022/04/26 04:36:03;;;;;;;9.52;3.92;;;6.00;99.90;;;;;;5098176;28;20083;-69
2022/04/26 04:38:29;;;;;;;13.55;5.20;;;6.00;99.90;;;;;;5109925;28;20047;-69
2022/04/26 04:40:54;;;;;;;10.68;4.70;;;6.10;99.90;;;;;;5110243;28;20036;-69
2022/04/26 04:43:21;;;;;;;8.90;4.07;;;6.10;99.90;;;;;;5109944;28;20498;-69
2022/04/26 04:45:47;;;;;;;12.27;4.53;;;6.10;99.90;;;;;;5109355;28;20054;-69
2022/04/26 04:48:13;;;;;;;9.43;4.13;;;6.20;99.90;;;;;;5107927;28;20505;-69
2022/04/26 04:50:39;;;;;;;7.78;4.30;;;6.20;99.90;;;;;;5110548;28;20055;-69
2022/04/26 04:53:04;;;;;;;7.93;5.07;;;6.20;99.90;;;;;;5110530;28;20043;-69
2022/04/26 04:55:30;;;;;;;6.45;3.92;;;6.20;99.90;;;;;;5097512;28;20044;-69
2022/04/26 04:57:58;;;;;;;9.27;4.32;;;6.30;99.90;;;;;;5104066;28;20114;-69
2022/04/26 05:00:24;;;;;;;10.68;4.57;;;6.30;99.90;;;;;;5091550;28;20595;-69
2022/04/26 05:02:50;;;;;;;8.88;4.28;;;6.30;99.90;;;;;;5090030;28;20046;-69
2022/04/26 05:05:16;;;;;;;15.30;4.80;;;6.40;99.90;;;;;;5093105;28;20081;-69
2022/04/26 05:07:42;;;;;;;10.55;4.65;;;6.40;99.90;;;;;;5098134;28;20105;-69
2022/04/26 05:10:08;;;;;;;6.88;4.25;;;6.50;99.90;;;;;;5095647;28;20048;-69
2022/04/26 05:12:34;;;;;;;7.90;4.10;;;6.50;99.90;;;;;;5097367;28;20528;-68
2022/04/26 05:15:00;;;;;;;15.15;4.88;;;6.50;99.90;;;;;;5102482;28;20035;-69
2022/04/26 05:17:29;;;;;;;10.10;4.45;;;6.50;99.90;;;;;;5114201;28;20039;-69
2022/04/26 05:19:55;;;;;;;7.75;3.58;;;6.60;99.90;;;;;;5107140;28;20090;-69
2022/04/26 05:22:24;;;;;;;6.07;3.60;;;6.60;99.90;;;;;;5102763;28;20549;-69
2022/04/26 05:24:58;;;;;;;9.90;4.13;;;6.60;99.90;;;;;;5097033;28;20591;-69
2022/04/26 05:27:29;;;;;;;12.55;6.93;;;6.70;99.90;;;;;;5106073;28;20462;-68
2022/04/26 05:29:56;;;;;;;8.95;5.65;;;6.70;99.90;;;;;;5101672;28;20044;-69
2022/04/26 05:32:23;;;;;;;13.13;5.97;;;6.80;99.90;;;;;;5094285;28;20413;-69
2022/04/26 05:34:55;;;;;;;16.60;9.70;;;6.90;99.90;;;;;;5094425;28;20040;-69
2022/04/26 05:37:20;;;;;;;21.17;11.55;;;6.90;99.90;;;;;;5092088;28;20050;-69
2022/04/26 05:39:49;;;;;;;71.75;44.05;;;7.00;99.90;;;;;;5092914;28;20615;-68
2022/04/26 05:42:14;;;;;;;78.15;49.35;;;7.00;99.90;;;;;;5092487;28;20482;-68
2022/04/26 05:44:40;;;;;;;22.13;14.93;;;7.10;99.90;;;;;;5092350;28;20046;-69
2022/04/26 05:47:09;;;;;;;19.92;10.82;;;7.10;99.90;;;;;;5098123;28;20203;-68
2022/04/26 05:49:35;;;;;;;11.20;5.63;;;7.20;99.90;;;;;;5107633;28;20052;-69
2022/04/26 05:52:02;;;;;;;11.68;5.45;;;7.30;99.90;;;;;;5093042;28;20043;-68
2022/04/26 05:54:28;;;;;;;11.20;5.68;;;7.30;99.90;;;;;;5092420;28;20055;-69
2022/04/26 05:56:54;;;;;;;9.88;5.85;;;7.40;99.90;;;;;;5094790;28;20075;-69
2022/04/26 05:59:21;;;;;;;10.32;4.78;;;7.40;99.90;;;;;;5100294;28;20086;-70
2022/04/26 06:01:47;;;;;;;10.65;4.80;;;7.50;99.90;;;;;;5103565;28;20403;-68
2022/04/26 06:04:13;;;;;;;13.38;4.57;;;7.60;99.90;;;;;;5093698;28;20508;-69
2022/04/26 06:06:39;;;;;;;13.52;4.35;;;7.60;99.90;;;;;;5091632;28;20048;-69
2022/04/26 06:09:05;;;;;;;14.70;3.97;;;7.70;99.90;;;;;;5091942;28;20176;-69
2022/04/26 06:11:31;;;;;;;6.57;3.45;;;7.70;99.90;;;;;;5102193;28;20047;-69
2022/04/26 06:13:57;;;;;;;7.72;3.70;;;7.80;99.90;;;;;;5098165;28;20051;-69
2022/04/26 06:16:22;;;;;;;16.30;4.25;;;7.80;99.90;;;;;;5109368;28;20047;-69
2022/04/26 06:18:48;;;;;;;7.10;3.55;;;7.90;99.90;;;;;;5092820;28;20478;-69
2022/04/26 06:21:15;;;;;;;9.48;3.80;;;8.00;99.90;;;;;;5097470;28;20378;-69
2022/04/26 06:23:41;;;;;;;7.53;3.65;;;8.10;99.90;;;;;;5100210;28;20048;-69
2022/04/26 06:26:06;;;;;;;5.97;3.67;;;8.10;99.90;;;;;;5102352;28;20054;-69
2022/04/26 06:28:32;;;;;;;9.18;3.95;;;8.20;99.90;;;;;;5100167;28;20482;-69
2022/04/26 06:30:58;;;;;;;10.07;3.78;;;8.30;99.90;;;;;;5092562;28;20044;-69
2022/04/26 06:33:24;;;;;;;10.23;3.67;;;8.30;99.90;;;;;;5096047;28;20051;-69
2022/04/26 06:35:49;;;;;;;9.77;4.10;;;8.30;99.90;;;;;;5105155;28;20040;-69
2022/04/26 06:38:18;;;;;;;8.75;3.58;;;8.40;99.90;;;;;;5101956;28;20050;-69
2022/04/26 06:40:46;;;;;;;9.07;3.97;;;8.30;99.90;;;;;;5090926;28;20512;-69
2022/04/26 06:43:12;;;;;;;14.07;3.42;;;8.40;99.90;;;;;;5106549;28;20402;-69
2022/04/26 06:45:37;;;;;;;9.15;3.58;;;8.40;99.90;;;;;;5093404;28;20044;-69
2022/04/26 06:48:10;;;;;;;10.93;3.65;;;8.50;99.90;;;;;;5103283;28;20055;-69
2022/04/26 06:50:39;;;;;;;9.63;4.07;;;8.50;99.90;;;;;;5101471;28;20056;-69
2022/04/26 06:53:05;;;;;;;12.30;3.92;;;8.50;99.90;;;;;;5092303;28;20052;-69
2022/04/26 06:55:31;;;;;;;9.10;3.90;;;8.70;99.90;;;;;;5106441;28;20036;-68
2022/04/26 06:57:57;;;;;;;9.10;3.38;;;8.70;99.90;;;;;;5103711;28;20032;-69
2022/04/26 07:00:23;;;;;;;5.90;3.28;;;8.70;99.90;;;;;;5092109;28;20048;-69
2022/04/26 07:02:52;;;;;;;6.40;3.60;;;8.80;99.90;;;;;;5099673;28;20381;-69
2022/04/26 07:05:18;;;;;;;10.02;3.10;;;8.90;99.90;;;;;;5111717;28;20139;-69
2022/04/26 07:07:43;;;;;;;11.45;2.83;;;8.90;99.90;;;;;;5108237;28;20126;-69
2022/04/26 07:10:10;;;;;;;8.32;3.17;;;9.00;99.90;;;;;;5096245;28;20080;-69
2022/04/26 07:12:36;;;;;;;7.95;3.58;;;9.20;99.90;;;;;;5111298;28;20051;-69
2022/04/26 07:15:06;;;;;;;4.40;2.75;;;9.30;99.90;;;;;;5105636;28;20123;-69
2022/04/26 07:17:34;;;;;;;8.68;3.10;;;9.40;99.90;;;;;;5096691;28;20054;-70
2022/04/26 07:20:00;;;;;;;7.35;3.00;;;9.30;99.90;;;;;;5107403;28;20043;-68
2022/04/26 07:22:26;;;;;;;9.00;2.90;;;9.30;99.90;;;;;;5098020;28;20379;-69
2022/04/26 07:24:52;;;;;;;8.60;3.20;;;9.40;99.90;;;;;;5090277;28;20093;-69
2022/04/26 07:27:20;;;;;;;6.00;3.33;;;9.50;99.90;;;;;;5092209;28;20044;-69
2022/04/26 07:29:51;;;;;;;8.32;3.05;;;9.50;99.90;;;;;;5091330;28;20071;-69
2022/04/26 07:32:18;;;;;;;9.90;3.27;;;9.40;99.90;;;;;;5092117;28;20397;-69
2022/04/26 07:34:45;;;;;;;11.73;3.17;;;9.30;99.90;;;;;;5091387;28;20062;-69
2022/04/26 07:37:11;;;;;;;10.43;2.63;;;9.20;99.90;;;;;;5089877;28;20138;-69
2022/04/26 07:39:37;;;;;;;4.90;2.75;;;9.20;99.90;;;;;;5089864;28;20113;-69
2022/04/26 07:42:04;;;;;;;8.13;3.47;;;9.30;99.90;;;;;;5090443;28;20429;-69
2022/04/26 07:44:30;;;;;;;8.95;2.85;;;9.40;99.90;;;;;;5090035;28;20055;-69
2022/04/26 07:46:57;;;;;;;5.63;2.45;;;9.60;99.90;;;;;;5090131;28;20490;-69
2022/04/26 07:49:23;;;;;;;5.85;2.75;;;9.80;99.90;;;;;;5099644;28;20031;-69
2022/04/26 07:51:50;;;;;;;5.78;2.72;;;9.90;99.90;;;;;;5092112;28;20052;-69
2022/04/26 07:54:16;;;;;;;6.47;3.03;;;10.00;99.90;;;;;;5097443;28;20127;-69
2022/04/26 07:56:43;;;;;;;6.30;2.22;;;10.00;99.90;;;;;;5110391;28;20162;-69
2022/04/26 07:59:09;;;;;;;4.57;2.03;;;10.00;99.90;;;;;;5096463;28;20043;-69
2022/04/26 08:01:35;;;;;;;14.27;2.42;;;9.90;99.90;;;;;;5105745;28;20080;-69
2022/04/26 08:04:01;;;;;;;4.82;1.85;;;9.80;99.90;;;;;;5102681;28;20086;-69
2022/04/26 08:06:27;;;;;;;3.95;2.28;;;9.80;99.90;;;;;;5103310;28;20075;-68
2022/04/26 08:08:54;;;;;;;2.97;2.03;;;9.80;99.90;;;;;;5089816;28;20136;-70
2022/04/26 08:11:20;;;;;;;11.68;2.28;;;10.00;99.90;;;;;;5090908;28;20040;-72
2022/04/26 08:13:46;;;;;;;7.72;2.60;;;10.20;99.90;;;;;;5109826;28;20050;-71
2022/04/26 08:16:12;;;;;;;4.75;2.03;;;10.50;99.90;;;;;;5091053;28;20122;-73
2022/04/26 08:18:38;;;;;;;6.43;2.35;;;10.60;99.90;;;;;;5091251;28;20135;-74
2022/04/26 08:21:06;;;;;;;5.30;2.13;;;10.70;99.90;;;;;;5093669;28;20140;-73
2022/04/26 08:27:22;;;;;;;4.88;1.88;;;10.70;99.90;;;;;;5103438;28;20047;-71
2022/04/26 08:29:27;;;;;;;4.45;2.53;;;10.80;99.90;;;;;;5069558;28;20502;-72
2022/04/26 08:31:55;;;;;;;5.57;2.25;;;10.90;99.90;;;;;;5085478;28;20075;-72
2022/04/26 08:34:22;;;;;;;18.73;2.45;;;10.90;99.90;;;;;;5109990;28;20089;-72
2022/04/26 08:36:50;;;;;;;4.97;2.90;;;10.90;99.90;;;;;;5106399;28;20043;-72
2022/04/26 08:39:15;;;;;;;5.32;2.15;;;10.90;99.90;;;;;;5090859;28;20055;-71
2022/04/26 08:41:41;;;;;;;7.13;3.03;;;10.90;99.90;;;;;;5106563;28;20049;-72
2022/04/26 08:44:11;;;;;;;7.20;3.25;;;10.90;99.90;;;;;;5111080;28;20424;-72
2022/04/26 08:52:07;;;;;;;5.30;2.53;;;10.60;99.90;;;;;;5093562;28;20098;-70
2022/04/26 08:54:33;;;;;;;5.00;2.30;;;10.90;99.90;;;;;;5098017;28;20130;-70
2022/04/26 08:56:59;;;;;;;7.32;2.60;;;11.00;99.90;;;;;;5109832;28;20052;-70
2022/04/26 08:59:26;;;;;;;9.10;2.72;;;11.00;99.90;;;;;;5099293;28;20036;-69
2022/04/26 09:02:15;;;;;;;3.42;1.92;;;11.10;99.90;;;;;;5107941;28;20505;-70
2022/04/26 09:04:41;;;;;;;4.97;2.00;;;11.10;99.90;;;;;;5112333;28;20078;-71
2022/04/26 09:07:26;;;;;;;5.60;2.72;;;10.90;99.90;;;;;;5103349;28;20048;-70
2022/04/26 09:10:12;;;;;;;5.30;2.17;;;10.80;99.90;;;;;;5107842;28;20051;-72
2022/04/26 09:12:57;;;;;;;3.00;1.92;;;10.90;99.90;;;;;;5112982;28;20062;-69
2022/04/26 09:15:38;;;;;;;4.05;2.15;;;11.30;99.90;;;;;;5112820;28;20099;-70
2022/04/26 09:18:26;;;;;;;4.43;2.33;;;11.40;99.90;;;;;;5109129;28;20051;-70
2022/04/26 09:20:57;;;;;;;2.67;1.88;;;11.40;99.90;;;;;;5099609;28;21682;-70
2022/04/26 09:23:27;;;;;;;3.97;2.13;;;11.30;99.90;;;;;;5112281;28;20042;-68
2022/04/26 09:26:06;;;;;;;6.50;2.25;;;11.30;99.90;;;;;;5101663;28;20126;-70
2022/04/26 09:28:31;;;;;;;4.00;2.15;;;11.10;99.90;;;;;;5102448;28;20154;-70
2022/04/26 09:30:57;;;;;;;7.60;2.58;;;11.10;99.90;;;;;;5107514;28;20643;-69
2022/04/26 09:33:38;;;;;;;7.38;1.73;;;11.20;99.90;;;;;;5105887;28;20092;-70
2022/04/26 09:36:15;;;;;;;4.10;1.95;;;11.40;99.90;;;;;;5090050;28;20044;-70
2022/04/26 09:38:49;;;;;;;4.93;2.20;;;11.50;99.90;;;;;;5102866;28;20078;-69
2022/04/26 09:41:15;;;;;;;5.82;2.20;;;11.50;99.90;;;;;;5110124;28;20083;-69
2022/04/26 09:43:41;;;;;;;4.38;2.40;;;11.60;99.90;;;;;;5108148;28;20036;-69
2022/04/26 09:46:08;;;;;;;3.25;2.10;;;11.60;99.90;;;;;;5105626;28;20051;-70
2022/04/26 09:48:38;;;;;;;5.38;2.20;;;11.70;99.90;;;;;;5112869;28;20050;-71
2022/04/26 09:51:06;;;;;;;6.63;2.63;;;11.70;99.90;;;;;;5111438;28;20083;-70
2022/04/26 09:53:35;;;;;;;5.45;2.25;;;11.70;99.90;;;;;;5113496;28;20104;-70
2022/04/26 09:56:02;;;;;;;11.77;2.53;;;11.70;99.90;;;;;;5111732;28;20513;-70
2022/04/26 09:58:29;;;;;;;4.78;1.80;;;11.50;99.90;;;;;;5111626;28;20493;-70
2022/04/26 10:01:01;;;;;;;4.47;2.00;;;11.50;99.90;;;;;;5112240;28;20039;-71
2022/04/26 10:03:39;;;;;;;7.35;2.30;;;11.50;99.90;;;;;;5108461;28;20386;-70
2022/04/26 10:06:07;;;;;;;5.63;2.20;;;11.80;99.90;;;;;;5091267;28;20044;-70
2022/04/26 10:08:35;;;;;;;5.28;2.30;;;11.90;99.90;;;;;;5093380;28;20075;-71
2022/04/26 10:11:02;;;;;;;7.22;2.20;;;12.00;99.90;;;;;;5102183;28;20741;-72
2022/04/26 10:13:31;;;;;;;6.03;2.55;;;12.10;99.90;;;;;;5092960;28;20040;-71
2022/04/26 10:16:05;;;;;;;8.20;2.13;;;12.20;99.90;;;;;;5096278;28;20051;-71
2022/04/26 10:18:32;;;;;;;4.68;2.22;;;12.10;99.90;;;;;;5113031;28;20085;-71
2022/04/26 10:20:59;;;;;;;7.18;2.28;;;12.00;99.90;;;;;;5113335;28;20040;-71
2022/04/26 10:23:24;;;;;;;4.30;1.63;;;12.10;99.90;;;;;;5112206;28;20052;-71
2022/04/26 10:26:22;;;;;;;4.28;1.90;;;12.30;99.90;;;;;;5104701;28;20040;-69
2022/04/26 10:28:55;;;;;;;6.78;2.22;;;12.40;99.90;;;;;;5094499;28;20070;-69
2022/04/26 10:31:36;;;;;;;2.42;1.80;;;12.40;99.90;;;;;;5104371;28;20040;-69
2022/04/26 10:34:17;;;;;;;10.88;2.25;;;12.30;99.90;;;;;;5096922;28;20083;-71
2022/04/26 10:36:49;;;;;;;5.45;2.22;;;12.10;99.90;;;;;;5101579;28;20067;-76
2022/04/26 10:39:49;;;;;;;4.38;2.22;;;11.90;99.90;;;;;;5090521;28;20055;-74
2022/04/26 10:42:15;;;;;;;6.72;2.45;;;12.00;99.90;;;;;;5024172;28;20597;-75
2022/04/26 10:44:48;;;;;;;6.05;2.50;;;12.30;99.90;;;;;;5109992;28;20051;-75
2022/04/26 10:47:18;;;;;;;6.50;2.20;;;12.40;99.90;;;;;;5092502;28;20059;-72
2022/04/26 10:49:45;;;;;;;3.15;2.10;;;12.50;99.90;;;;;;5092332;28;20039;-71
2022/04/26 10:52:22;;;;;;;4.55;2.53;;;12.50;99.90;;;;;;5091021;28;20334;-72
2022/04/26 10:57:18;;;;;;;4.95;2.75;;;12.40;99.90;;;;;;5091943;28;20090;-72
2022/04/26 11:00:05;;;;;;;3.28;2.45;;;12.40;99.90;;;;;;5092246;28;20042;-73
2022/04/26 11:02:40;;;;;;;6.80;2.38;;;12.50;99.90;;;;;;5092521;28;20052;-73
2022/04/26 11:05:16;;;;;;;6.50;2.53;;;12.50;99.90;;;;;;5112462;28;20103;-76
2022/04/26 11:07:52;;;;;;;2.97;2.33;;;12.60;99.90;;;;;;5101863;28;20564;-72
2022/04/26 11:10:23;;;;;;;3.10;1.98;;;12.70;99.90;;;;;;5106838;28;20047;-72
2022/04/26 11:12:50;;;;;;;4.15;2.30;;;12.70;99.90;;;;;;5098485;28;20505;-72
2022/04/26 11:15:22;;;;;;;3.15;2.20;;;12.90;99.90;;;;;;5105195;28;20062;-72
2022/04/26 11:17:50;;;;;;;4.93;2.38;;;13.10;99.90;;;;;;5113628;28;20620;-71
2022/04/26 11:20:17;;;;;;;4.60;2.03;;;13.10;99.90;;;;;;5113258;28;20047;-72
2022/04/26 11:27:59;;;;;;;4.93;2.17;;;13.20;99.90;;;;;;5111262;28;20052;-72
2022/04/26 11:28:32;;;;;;;2.50;1.55;;;13.20;99.90;;;;;;5094164;28;20092;-72
2022/04/26 11:30:58;;;;;;;5.38;1.80;;;13.40;99.90;;;;;;5098784;28;20552;-71
2022/04/26 11:33:25;;;;;;;3.80;1.83;;;13.60;99.90;;;;;;5091002;28;20080;-71
2022/04/26 11:35:58;;;;;;;5.32;1.83;;;13.50;99.10;;;;;;5089743;28;20056;-72
2022/04/26 11:38:27;;;;;;;4.55;1.88;;;13.30;97.80;;;;;;5103521;28;20398;-72
2022/04/26 11:41:01;;;;;;;4.63;2.17;;;13.30;97.30;;;;;;5103817;28;20139;-71
2022/04/26 11:43:31;;;;;;;6.90;1.95;;;13.20;97.00;;;;;;5091923;28;20056;-72
2022/04/26 11:45:57;;;;;;;5.65;2.33;;;12.90;96.30;;;;;;5092468;28;20134;-72
2022/04/26 11:48:29;;;;;;;4.70;2.17;;;12.70;97.40;;;;;;5091604;28;20048;-72
2022/04/26 11:50:56;;;;;;;4.43;1.90;;;12.80;99.30;;;;;;5090141;28;20092;-72
2022/04/26 11:53:24;;;;;;;3.75;1.95;;;12.90;98.20;;;;;;5093026;28;20362;-72
2022/04/26 11:55:58;;;;;;;4.05;2.03;;;12.90;98.00;;;;;;5111287;28;20082;-72
2022/04/26 11:58:33;;;;;;;5.80;2.17;;;12.90;97.40;;;;;;5111097;28;20122;-72
2022/04/26 12:01:03;;;;;;;5.22;2.38;;;12.80;98.10;;;;;;5105876;28;20136;-71
2022/04/26 12:03:37;;;;;;;5.30;2.00;;;12.90;98.90;;;;;;5090613;28;20052;-70
2022/04/26 12:06:07;;;;;;;2.88;1.80;;;13.10;98.40;;;;;;5092227;28;20508;-71
2022/04/26 12:08:42;;;;;;;3.83;1.75;;;13.10;97.90;;;;;;5095111;28;20099;-71
2022/04/26 12:11:22;;;;;;;2.95;2.05;;;13.10;96.70;;;;;;5091305;28;20125;-72
2022/04/26 12:13:58;;;;;;;5.80;2.30;;;13.20;94.20;;;;;;5092078;28;20512;-68
2022/04/26 12:16:23;;;;;;;4.60;1.85;;;13.20;95.20;;;;;;5093730;28;20043;-72
2022/04/26 12:18:54;;;;;;;4.68;2.13;;;13.40;95.40;;;;;;5106912;28;20543;-72
2022/04/26 12:21:22;;;;;;;2.00;1.50;;;13.40;95.60;;;;;;5093047;28;20044;-72
2022/04/26 12:24:08;;;;;;;5.82;2.17;;;13.60;95.10;;;;;;5095578;28;20436;-73
2022/04/26 12:26:34;;;;;;;4.60;2.08;;;13.70;93.20;;;;;;5089082;28;20048;-80
2022/04/26 12:29:00;;;;;;;4.18;1.98;;;13.50;93.40;;;;;;5104908;27;20061;-81
2022/04/26 12:31:30;;;;;;;3.45;1.75;;;13.70;94.80;;;;;;5103741;28;20062;-76
2022/04/26 12:34:13;;;;;;;2.97;1.63;;;13.80;94.80;;;;;;5102015;28;20039;-76
2022/04/26 12:36:57;;;;;;;4.15;1.77;;;13.80;93.70;;;;;;5099864;28;20104;-75
2022/04/26 12:41:59;;;;;;;3.17;1.70;;;13.70;92.50;;;;;;5158996;22;20064;-71
2022/04/26 12:44:25;;;;;;;4.35;2.05;;;13.50;92.00;;;;;;5065700;28;20053;-72
2022/04/26 12:52:41;;;;;;;6.47;2.28;;;13.80;93.70;;;;;;5057043;28;20052;-70
2022/04/26 12:55:07;;;;;;;4.18;2.05;;;13.80;94.10;;;;;;5081647;28;20070;-77
2022/04/26 12:57:53;;;;;;;14.23;2.55;;;13.70;93.80;;;;;;5076834;28;20658;-77
2022/04/26 13:00:22;;;;;;;3.95;1.98;;;13.60;92.70;;;;;;5071048;28;20072;-77
2022/04/26 13:02:50;;;;;;;10.60;2.03;;;13.60;93.60;;;;;;5062461;28;20052;-74
2022/04/26 13:05:16;;;;;;;4.60;2.00;;;13.50;92.90;;;;;;5077730;28;20071;-75
2022/04/26 13:07:46;;;;;;;2.70;1.98;;;13.40;93.70;;;;;;5058501;28;20044;-76
2022/04/26 13:12:52;;;;;;;5.00;2.28;;;13.30;93.20;;;;;;5121320;22;20072;-73
2022/04/26 13:15:23;;;;;;;4.10;1.85;;;13.60;93.70;;;;;;5029196;28;20053;-74
2022/04/26 13:17:48;;;;;;;3.42;1.85;;;13.80;93.40;;;;;;5030986;28;20139;-66
2022/04/26 13:20:14;;;;;;;2.70;1.85;;;13.90;92.70;;;;;;5046126;28;20121;-66
2022/04/26 13:22:40;;;;;;;4.95;2.10;;;14.00;92.20;;;;;;5044674;28;20041;-72
2022/04/26 13:25:07;;;;;;;3.22;1.75;;;14.80;92.00;;;;;;5016093;28;20057;-72
2022/04/26 13:27:34;;;;;;;2.45;2.03;;;14.00;91.40;;;;;;5022647;28;20041;-72
2022/04/26 13:30:02;;;;;;;4.45;2.30;;;14.30;91.10;;;;;;5027255;28;20044;-72
2022/04/26 13:32:30;;;;;;;3.55;2.13;;;13.70;90.40;;;;;;5028765;28;20084;-72
2022/04/26 13:34:56;;;;;;;5.28;2.03;;;13.60;90.90;;;;;;5030514;28;20060;-72
2022/04/26 13:37:22;;;;;;;6.00;2.28;;;13.70;90.40;;;;;;5029119;28;20045;-72
2022/04/26 13:39:49;;;;;;;2.75;1.90;;;13.60;90.10;;;;;;5044199;28;20118;-72
2022/04/26 13:42:16;;;;;;;5.72;1.83;;;13.60;90.80;;;;;;5031897;28;20398;-82
2022/04/26 13:44:42;;;;;;;3.72;2.13;;;13.50;91.30;;;;;;5199981;23;20061;-74
2022/04/26 13:47:08;;;;;;;3.20;1.85;;;13.50;91.20;;;;;;5045149;28;20553;-74
2022/04/26 13:49:39;;;;;;;5.93;2.10;;;13.40;91.30;;;;;;5020530;28;20083;-74
2022/04/26 13:52:06;;;;;;;7.07;2.13;;;13.40;91.60;;;;;;5035915;28;20470;-74
2022/04/26 13:54:32;;;;;;;5.65;1.98;;;13.40;92.10;;;;;;5052909;28;20552;-74
2022/04/26 13:56:58;;;;;;;5.45;2.42;;;13.50;92.30;;;;;;5044902;28;20044;-75
2022/04/26 13:59:24;;;;;;;4.22;1.67;;;13.80;93.00;;;;;;5053478;28;20048;-72
2022/04/26 14:01:54;;;;;;;2.67;1.92;;;14.00;92.30;;;;;;5053128;28;20051;-72
2022/04/26 14:04:21;;;;;;;5.32;1.90;;;14.00;88.40;;;;;;5053071;28;20076;-72
2022/04/26 14:06:47;;;;;;;5.45;1.92;;;13.80;89.40;;;;;;5035539;28;20102;-72
2022/04/26 14:09:13;;;;;;;4.22;2.13;;;13.50;89.70;;;;;;5053518;28;20045;-72
2022/04/26 14:11:39;;;;;;;3.75;2.10;;;13.20;90.50;;;;;;5035891;28;20449;-72
2022/04/26 14:22:19;;;;;;;6.25;2.53;;;13.20;91.80;;;;;;5036087;28;20124;-72
2022/04/26 14:24:45;;;;;;;7.55;1.92;;;13.30;91.80;;;;;;5035307;28;20505;-73
2022/04/26 14:27:11;;;;;;;2.58;1.75;;;13.50;92.30;;;;;;5053459;28;20178;-72
2022/04/26 14:29:43;;;;;;;3.80;1.75;;;13.50;91.70;;;;;;5032891;28;20136;-73
2022/04/26 14:32:09;;;;;;;4.65;2.03;;;13.60;91.20;;;;;;5032556;28;20049;-72
2022/04/26 14:34:36;;;;;;;5.22;2.30;;;13.50;91.10;;;;;;5033916;28;20124;-73
2022/04/26 14:37:03;;;;;;;5.53;2.28;;;13.50;91.40;;;;;;5015846;28;20053;-72
2022/04/26 14:39:29;;;;;;;6.30;1.88;;;13.50;90.70;;;;;;5015317;28;20049;-72
2022/04/26 14:41:55;;;;;;;4.18;1.77;;;13.40;90.50;;;;;;5027225;28;20095;-72
2022/04/26 14:44:20;;;;;;;4.88;1.88;;;13.30;89.10;;;;;;5041302;28;20061;-72
2022/04/26 14:46:46;;;;;;;3.17;1.52;;;13.10;89.20;;;;;;5015503;28;20069;-72
2022/04/26 14:49:11;;;;;;;2.55;1.60;;;13.00;89.30;;;;;;5015591;28;20045;-72
2022/04/26 14:51:37;;;;;;;5.07;1.90;;;13.00;89.80;;;;;;5018093;28;20057;-72
2022/04/26 14:54:03;;;;;;;6.53;1.80;;;12.90;89.00;;;;;;5033250;28;21563;-72
2022/04/26 14:56:31;;;;;;;5.78;1.73;;;12.80;89.80;;;;;;5050362;28;20055;-71
2022/04/26 14:59:00;;;;;;;4.18;2.00;;;12.80;89.80;;;;;;5051648;28;20423;-72
2022/04/26 15:01:29;;;;;;;3.58;1.98;;;12.80;90.30;;;;;;5034734;28;20060;-72
2022/04/26 15:03:55;;;;;;;5.72;2.30;;;12.90;90.20;;;;;;5045483;28;20045;-72
2022/04/26 15:06:21;;;;;;;3.15;2.25;;;12.80;90.40;;;;;;5038487;28;20049;-71
2022/04/26 15:11:31;;;;;;;2.88;1.73;;;12.90;92.30;;;;;;5046100;28;20081;-72
2022/04/26 15:16:42;;;;;;;3.30;1.65;;;13.20;92.40;;;;;;5033129;28;20399;-72
2022/04/26 15:19:10;;;;;;;3.17;2.05;;;13.10;92.10;;;;;;5032543;28;20053;-72
2022/04/26 15:21:37;;;;;;;5.70;2.47;;;13.10;92.20;;;;;;5031931;28;20464;-72
2022/04/26 15:24:03;;;;;;;3.25;1.65;;;13.10;92.10;;;;;;5014652;28;20156;-72
2022/04/26 15:26:29;;;;;;;3.92;1.73;;;13.10;91.60;;;;;;5014715;28;20152;-72
2022/04/26 15:28:55;;;;;;;2.63;1.65;;;12.90;91.20;;;;;;5031878;28;20120;-72
2022/04/26 15:31:21;;;;;;;4.75;2.17;;;13.00;91.30;;;;;;5015079;28;20416;-72
2022/04/26 15:33:48;;;;;;;2.65;1.67;;;13.10;91.90;;;;;;5032953;28;20044;-72
2022/04/26 15:36:15;;;;;;;3.72;1.80;;;13.20;91.40;;;;;;5022536;28;20056;-74
2022/04/26 15:38:42;;;;;;;3.00;2.00;;;13.10;91.10;;;;;;5026231;28;20079;-74
2022/04/26 15:41:07;;;;;;;4.82;2.40;;;13.10;91.10;;;;;;5032155;28;20159;-72
2022/04/26 15:43:34;;;;;;;6.50;2.30;;;12.90;91.60;;;;;;5051534;28;20569;-72
2022/04/26 15:46:08;;;;;;;3.13;2.00;;;12.90;92.10;;;;;;5051724;28;20045;-71
2022/04/26 15:48:39;;;;;;;4.65;2.10;;;12.80;93.10;;;;;;5051747;28;20044;-73
2022/04/26 15:51:05;;;;;;;4.53;2.25;;;12.80;93.50;;;;;;5025342;28;20055;-73
2022/04/26 15:53:31;;;;;;;5.03;2.08;;;12.70;92.60;;;;;;5037214;28;20245;-72
2022/04/26 15:55:57;;;;;;;3.03;1.85;;;12.50;92.90;;;;;;5037767;28;20120;-73
2022/04/26 15:58:23;;;;;;;4.50;1.67;;;12.50;94.00;;;;;;5044057;28;20073;-72
2022/04/26 16:00:49;;;;;;;6.25;2.25;;;12.50;93.20;;;;;;5044876;28;20501;-72
2022/04/26 16:03:15;;;;;;;5.78;2.35;;;12.40;92.70;;;;;;5042264;28;20107;-72
2022/04/26 16:05:41;;;;;;;2.83;1.85;;;12.30;93.10;;;;;;5036551;28;20460;-71
2022/04/26 16:08:07;;;;;;;8.57;2.15;;;12.40;93.10;;;;;;5030774;28;20128;-72
2022/04/26 16:21:33;;;;;;;6.32;3.45;;;12.30;90.40;;;;;;5044602;28;20053;-72
2022/04/26 16:24:00;;;;;;;6.13;2.80;;;12.20;90.70;;;;;;5046697;28;20047;-72
2022/04/26 16:26:27;;;;;;;2.75;1.60;;;12.10;91.40;;;;;;5051145;28;20060;-72
2022/04/26 16:28:53;;;;;;;7.25;2.00;;;12.10;92.40;;;;;;5033456;28;20493;-72
2022/04/26 16:31:27;;;;;;;6.38;2.10;;;12.20;92.80;;;;;;5032973;28;20037;-72
2022/04/26 16:33:54;;;;;;;4.38;2.33;;;12.20;92.90;;;;;;5033567;28;20056;-72
2022/04/26 16:36:21;;;;;;;4.88;1.70;;;12.20;93.20;;;;;;5047790;28;20040;-72
2022/04/26 16:38:47;;;;;;;5.35;2.13;;;12.10;93.00;;;;;;5032556;28;20049;-72
2022/04/26 16:41:12;;;;;;;3.97;1.67;;;12.00;93.10;;;;;;5049959;28;20042;-72
2022/04/26 16:43:39;;;;;;;6.47;1.98;;;11.90;93.80;;;;;;5041620;28;20581;-73
2022/04/26 16:46:06;;;;;;;3.33;2.03;;;11.80;93.60;;;;;;5035045;28;20092;-73
2022/04/26 16:48:33;;;;;;;6.30;2.10;;;11.70;94.50;;;;;;5033560;28;20075;-74
2022/04/26 16:50:59;;;;;;;5.18;1.50;;;11.70;95.10;;;;;;5050746;28;20398;-74
2022/04/26 16:53:24;;;;;;;7.15;3.00;;;11.60;95.10;;;;;;5033066;28;20144;-72
2022/04/26 16:55:50;;;;;;;5.75;2.30;;;11.50;95.90;;;;;;5033104;28;20415;-75
2022/04/26 16:58:18;;;;;;;12.73;2.90;;;11.40;95.80;;;;;;5050673;28;20048;-72
2022/04/26 17:00:45;;;;;;;7.13;2.13;;;11.40;95.90;;;;;;5031478;28;20115;-72
2022/04/26 17:03:11;;;;;;;4.45;1.77;;;11.30;96.80;;;;;;5031256;28;20049;-72
2022/04/26 17:05:45;;;;;;;5.60;2.22;;;11.30;97.60;;;;;;5013799;28;20152;-72
2022/04/26 17:08:11;;;;;;;4.90;2.25;;;11.30;99.10;;;;;;5034070;28;20049;-72
2022/04/26 17:10:37;;;;;;;8.45;2.30;;;11.40;99.90;;;;;;5035039;28;20053;-72
2022/04/26 17:13:02;;;;;;;4.97;2.33;;;11.40;99.90;;;;;;5024241;28;20787;-72
2022/04/26 17:15:31;;;;;;;3.15;1.73;;;11.40;99.90;;;;;;5055446;28;20411;-72
2022/04/26 17:17:56;;;;;;;10.50;1.90;;;11.50;99.90;;;;;;5041499;28;20518;-73
2022/04/26 17:20:22;;;;;;;12.38;2.97;;;11.50;99.50;;;;;;5054362;28;20080;-72
2022/04/26 17:22:48;;;;;;;2.97;2.22;;;11.50;99.20;;;;;;5044985;28;20475;-72